Time;durP1;ratioP1;P1;durP2;ratioP2;P2;SDS_P1;SDS_P2;PMS_P1;PMS_P2;Temp;Humidity;BMP_temperature;BMP_pressure;BME280_temperature;BME280_humidity;BME280_pressure;Samples;Min_cycle;Max_cycle;Signal;HPM_P1;HPM_P2
2022/10/09 00:00:48;;;;;;;9.30;2.10;;;;;;;;;;5032100;28;20142;-61
2022/10/09 00:03:16;;;;;;;4.75;2.15;;;;;;;;;;5032179;28;20044;-60
2022/10/09 00:05:43;;;;;;;9.27;2.50;;;;;;;;;;5031526;28;20405;-60
2022/10/09 00:08:09;;;;;;;6.07;2.63;;;;;;;;;;5031677;28;20056;-60
2022/10/09 00:10:40;;;;;;;9.43;2.08;;;;;;;;;;5031209;28;20045;-60
2022/10/09 00:13:06;;;;;;;3.38;2.10;;;;;;;;;;5032078;28;20030;-60
2022/10/09 00:15:32;;;;;;;7.10;1.98;;;;;;;;;;5031255;28;20036;-60
2022/10/09 00:17:58;;;;;;;8.45;2.65;;;;;;;;;;5032008;28;20041;-60
2022/10/09 00:20:24;;;;;;;7.53;2.55;;;;;;;;;;5031296;28;20029;-60
2022/10/09 00:22:50;;;;;;;6.53;2.00;;;;;;;;;;5031883;28;20075;-60
2022/10/09 00:25:16;;;;;;;4.78;1.95;;;;;;;;;;5031121;28;20151;-60
2022/10/09 00:27:42;;;;;;;3.88;1.73;;;;;;;;;;5031759;28;20474;-60
2022/10/09 00:30:09;;;;;;;5.80;2.13;;;;;;;;;;5031796;28;20034;-60
2022/10/09 00:32:35;;;;;;;6.45;2.22;;;;;;;;;;5031483;28;20144;-60
2022/10/09 00:35:01;;;;;;;7.32;2.38;;;;;;;;;;5031285;28;20029;-60
2022/10/09 00:37:28;;;;;;;8.45;2.00;;;;;;;;;;5031649;28;20059;-61
2022/10/09 00:39:54;;;;;;;8.90;2.10;;;;;;;;;;5031351;28;20103;-60
2022/10/09 00:42:20;;;;;;;4.30;2.92;;;;;;;;;;5031814;28;20061;-60
2022/10/09 00:44:49;;;;;;;8.27;2.25;;;;;;;;;;5031031;28;20022;-60
2022/10/09 00:47:18;;;;;;;8.88;2.15;;;;;;;;;;5031667;28;20024;-60
2022/10/09 00:49:44;;;;;;;7.55;2.10;;;;;;;;;;5031421;28;20029;-60
2022/10/09 00:52:11;;;;;;;8.00;2.30;;;;;;;;;;5031579;28;20029;-60
2022/10/09 00:54:39;;;;;;;10.18;2.03;;;;;;;;;;5030512;28;20160;-60
2022/10/09 00:57:05;;;;;;;3.85;1.75;;;;;;;;;;5031718;28;20018;-60
2022/10/09 00:59:31;;;;;;;4.65;2.08;;;;;;;;;;5031269;28;20084;-60
2022/10/09 01:01:58;;;;;;;3.40;1.98;;;;;;;;;;5031009;28;20079;-60
2022/10/09 01:04:24;;;;;;;3.45;1.73;;;;;;;;;;5031523;28;20056;-60
2022/10/09 01:06:50;;;;;;;5.70;2.13;;;;;;;;;;5031116;28;20029;-60
2022/10/09 01:09:35;;;;;;;7.78;1.88;;;;;;;;;;5030908;28;20055;-60
2022/10/09 01:12:14;;;;;;;6.05;1.90;;;;;;;;;;5030972;28;20493;-60
2022/10/09 01:14:46;;;;;;;5.40;1.67;;;;;;;;;;5030843;28;20029;-60
2022/10/09 01:17:15;;;;;;;4.90;2.20;;;;;;;;;;5031342;28;20032;-60
2022/10/09 01:20:00;;;;;;;4.50;1.90;;;;;;;;;;5033414;28;20112;-60
2022/10/09 01:22:29;;;;;;;5.93;2.22;;;;;;;;;;5034618;28;20033;-60
2022/10/09 01:24:58;;;;;;;2.75;1.60;;;;;;;;;;5034567;28;20496;-60
2022/10/09 01:27:25;;;;;;;5.40;2.20;;;;;;;;;;5034730;28;20083;-60
2022/10/09 01:29:53;;;;;;;7.85;2.10;;;;;;;;;;5034682;28;20067;-60
2022/10/09 01:32:21;;;;;;;5.13;1.58;;;;;;;;;;5034714;28;20037;-60
2022/10/09 01:34:49;;;;;;;6.63;2.00;;;;;;;;;;5034247;28;20473;-60
2022/10/09 01:37:16;;;;;;;6.32;2.22;;;;;;;;;;5034299;28;20032;-60
2022/10/09 01:39:43;;;;;;;4.97;1.88;;;;;;;;;;5034215;28;20026;-60
2022/10/09 01:42:11;;;;;;;5.65;2.25;;;;;;;;;;5033002;28;20048;-60
2022/10/09 01:44:37;;;;;;;5.60;1.67;;;;;;;;;;5034158;28;20033;-60
2022/10/09 01:47:04;;;;;;;5.40;2.03;;;;;;;;;;5034683;28;20025;-60
2022/10/09 01:49:41;;;;;;;4.05;2.15;;;;;;;;;;5033925;28;20116;-60
2022/10/09 01:52:25;;;;;;;6.15;1.90;;;;;;;;;;5021883;28;20394;-60
2022/10/09 01:55:01;;;;;;;4.22;1.77;;;;;;;;;;5032897;28;20037;-60
2022/10/09 01:57:47;;;;;;;3.17;2.10;;;;;;;;;;5034193;28;20112;-60
2022/10/09 02:00:14;;;;;;;3.00;1.65;;;;;;;;;;5033413;28;20496;-60
2022/10/09 02:02:41;;;;;;;5.53;2.03;;;;;;;;;;5032392;28;20021;-61
2022/10/09 02:05:09;;;;;;;4.85;2.10;;;;;;;;;;5033020;28;20482;-60
2022/10/09 02:07:36;;;;;;;5.45;1.98;;;;;;;;;;5033638;28;20030;-60
2022/10/09 02:10:02;;;;;;;5.38;1.90;;;;;;;;;;5033324;28;20081;-60
2022/10/09 02:12:34;;;;;;;7.32;1.67;;;;;;;;;;5033957;28;20387;-60
2022/10/09 02:15:00;;;;;;;7.88;2.85;;;;;;;;;;5033507;28;20029;-60
2022/10/09 02:17:28;;;;;;;5.18;2.60;;;;;;;;;;5033821;28;20022;-60
2022/10/09 02:19:58;;;;;;;3.83;1.88;;;;;;;;;;5033052;28;20057;-60
2022/10/09 02:22:32;;;;;;;7.25;2.13;;;;;;;;;;5033528;28;20029;-60
2022/10/09 02:24:58;;;;;;;7.10;2.10;;;;;;;;;;5033210;28;20041;-60
2022/10/09 02:27:25;;;;;;;6.25;1.88;;;;;;;;;;5033493;28;20543;-60
2022/10/09 02:29:52;;;;;;;6.60;2.20;;;;;;;;;;5033474;28;20044;-60
2022/10/09 02:32:19;;;;;;;6.15;1.98;;;;;;;;;;5033684;28;20025;-60
2022/10/09 02:34:45;;;;;;;4.95;1.60;;;;;;;;;;5033134;28;20531;-60
2022/10/09 02:37:11;;;;;;;3.78;1.73;;;;;;;;;;5032885;28;20013;-60
2022/10/09 02:39:37;;;;;;;7.53;1.70;;;;;;;;;;5033403;28;20040;-60
2022/10/09 02:42:03;;;;;;;9.30;2.47;;;;;;;;;;5033367;28;20057;-60
2022/10/09 02:44:29;;;;;;;6.28;1.92;;;;;;;;;;5033376;28;20051;-60
2022/10/09 02:46:55;;;;;;;7.85;1.88;;;;;;;;;;5032802;28;20481;-60
2022/10/09 02:49:22;;;;;;;4.35;1.95;;;;;;;;;;5033406;28;20029;-60
2022/10/09 02:51:48;;;;;;;7.95;2.25;;;;;;;;;;5033226;28;20025;-60
2022/10/09 02:54:14;;;;;;;9.05;2.63;;;;;;;;;;5033268;28;20513;-60
2022/10/09 02:56:40;;;;;;;6.50;1.95;;;;;;;;;;5033312;28;20104;-60
2022/10/09 02:59:06;;;;;;;6.75;1.80;;;;;;;;;;5032849;28;20037;-60
2022/10/09 03:01:32;;;;;;;4.10;1.80;;;;;;;;;;5033070;28;20026;-60
2022/10/09 03:03:59;;;;;;;9.10;2.22;;;;;;;;;;5032616;28;20047;-60
2022/10/09 03:06:25;;;;;;;5.57;1.83;;;;;;;;;;5032753;28;20026;-60
2022/10/09 03:08:52;;;;;;;5.63;2.00;;;;;;;;;;5032488;28;20031;-60
2022/10/09 03:11:19;;;;;;;7.80;2.47;;;;;;;;;;5032785;28;20025;-60
2022/10/09 03:13:46;;;;;;;7.18;2.40;;;;;;;;;;5032688;28;20037;-60
2022/10/09 03:16:14;;;;;;;5.32;2.05;;;;;;;;;;5032744;28;20033;-60
2022/10/09 03:18:40;;;;;;;7.68;3.40;;;;;;;;;;5032465;28;20087;-60
2022/10/09 03:21:07;;;;;;;7.35;1.75;;;;;;;;;;5032493;28;20378;-60
2022/10/09 03:23:33;;;;;;;6.60;2.50;;;;;;;;;;5032538;28;20080;-60
2022/10/09 03:26:01;;;;;;;10.07;2.92;;;;;;;;;;5032240;28;20072;-60
2022/10/09 03:28:27;;;;;;;3.15;1.88;;;;;;;;;;5032717;28;20036;-60
2022/10/09 03:30:53;;;;;;;5.38;2.35;;;;;;;;;;5032220;28;20021;-61
2022/10/09 03:33:20;;;;;;;4.55;1.92;;;;;;;;;;5031913;28;20397;-60
2022/10/09 03:35:46;;;;;;;6.93;2.08;;;;;;;;;;5032615;28;20485;-60
2022/10/09 03:38:14;;;;;;;4.05;2.50;;;;;;;;;;5032196;28;20505;-60
2022/10/09 03:40:40;;;;;;;4.63;1.73;;;;;;;;;;5032416;28;20030;-60
2022/10/09 03:43:06;;;;;;;5.30;1.95;;;;;;;;;;5031262;28;20026;-60
2022/10/09 03:45:32;;;;;;;6.80;2.35;;;;;;;;;;5032594;28;20082;-60
2022/10/09 03:47:58;;;;;;;7.18;2.15;;;;;;;;;;5032052;28;20108;-60
2022/10/09 03:50:24;;;;;;;4.05;1.77;;;;;;;;;;5031852;28;20034;-60
2022/10/09 03:52:51;;;;;;;3.72;1.90;;;;;;;;;;5027922;28;20128;-60
2022/10/09 03:55:17;;;;;;;5.22;1.85;;;;;;;;;;5022574;28;20033;-60
2022/10/09 03:57:43;;;;;;;7.53;2.25;;;;;;;;;;5025676;28;20031;-60
2022/10/09 04:00:09;;;;;;;3.47;1.90;;;;;;;;;;5029338;28;20075;-60
2022/10/09 04:02:36;;;;;;;4.90;1.95;;;;;;;;;;5027833;28;20040;-60
2022/10/09 04:05:02;;;;;;;6.28;2.03;;;;;;;;;;5028894;28;20044;-61
2022/10/09 04:07:28;;;;;;;8.05;2.15;;;;;;;;;;5023110;28;20067;-60
2022/10/09 04:09:54;;;;;;;5.60;1.85;;;;;;;;;;5015646;28;20429;-60
2022/10/09 04:12:20;;;;;;;7.20;2.28;;;;;;;;;;5019716;28;20489;-60
2022/10/09 04:14:46;;;;;;;6.45;2.20;;;;;;;;;;5026044;28;20092;-60
2022/10/09 04:17:12;;;;;;;5.07;1.90;;;;;;;;;;5020690;28;20048;-60
2022/10/09 04:19:38;;;;;;;4.90;2.10;;;;;;;;;;5020390;28;20485;-60
2022/10/09 04:22:05;;;;;;;6.38;2.28;;;;;;;;;;5026340;28;20053;-60
2022/10/09 04:24:31;;;;;;;8.52;2.40;;;;;;;;;;5015600;28;20061;-60
2022/10/09 04:26:57;;;;;;;6.35;2.60;;;;;;;;;;5023551;28;20026;-60
2022/10/09 04:29:23;;;;;;;5.13;2.30;;;;;;;;;;5021888;28;20476;-60
2022/10/09 04:31:49;;;;;;;6.85;1.80;;;;;;;;;;5018341;28;20034;-60
2022/10/09 04:34:15;;;;;;;4.38;2.00;;;;;;;;;;5018849;28;20026;-60
2022/10/09 04:36:41;;;;;;;7.35;2.10;;;;;;;;;;5028617;28;20072;-60
2022/10/09 04:39:07;;;;;;;4.40;2.13;;;;;;;;;;5019478;28;20389;-60
2022/10/09 04:41:33;;;;;;;9.15;2.78;;;;;;;;;;5019138;28;20414;-60
2022/10/09 04:44:00;;;;;;;3.00;1.48;;;;;;;;;;5026199;28;20013;-60
2022/10/09 04:46:26;;;;;;;8.55;2.45;;;;;;;;;;5015536;28;20030;-60
2022/10/09 04:48:52;;;;;;;3.90;2.00;;;;;;;;;;5020960;28;20040;-60
2022/10/09 04:51:18;;;;;;;4.10;1.73;;;;;;;;;;5023098;28;20038;-60
2022/10/09 04:53:45;;;;;;;6.88;2.10;;;;;;;;;;5023679;28;20400;-60
2022/10/09 04:56:14;;;;;;;3.08;1.67;;;;;;;;;;5034315;28;20476;-60
2022/10/09 04:58:40;;;;;;;6.70;1.98;;;;;;;;;;5029676;28;20037;-60
2022/10/09 05:01:07;;;;;;;5.07;1.90;;;;;;;;;;5033239;28;20026;-60
2022/10/09 05:03:34;;;;;;;4.68;2.10;;;;;;;;;;5030991;28;20028;-60
2022/10/09 05:06:05;;;;;;;9.43;2.65;;;;;;;;;;5019676;28;20045;-60
2022/10/09 05:08:31;;;;;;;6.28;2.15;;;;;;;;;;5019186;28;20026;-60
2022/10/09 05:11:01;;;;;;;10.80;3.65;;;;;;;;;;5034414;28;20049;-60
2022/10/09 05:13:31;;;;;;;5.07;2.38;;;;;;;;;;5034827;28;20029;-60
2022/10/09 05:16:00;;;;;;;8.05;1.90;;;;;;;;;;5034771;28;20048;-60
2022/10/09 05:18:27;;;;;;;5.00;2.20;;;;;;;;;;5039228;28;20485;-60
2022/10/09 05:20:53;;;;;;;4.82;1.60;;;;;;;;;;5033876;28;20076;-60
2022/10/09 05:23:19;;;;;;;3.75;1.92;;;;;;;;;;5034714;28;20056;-60
2022/10/09 05:25:55;;;;;;;3.70;1.80;;;;;;;;;;5035017;28;20482;-60
2022/10/09 05:28:21;;;;;;;4.20;2.03;;;;;;;;;;5029496;28;20033;-60
2022/10/09 05:30:48;;;;;;;8.27;3.45;;;;;;;;;;5032871;28;20022;-60
2022/10/09 05:33:14;;;;;;;4.93;2.20;;;;;;;;;;5029098;28;20030;-60
2022/10/09 05:35:40;;;;;;;6.18;2.58;;;;;;;;;;5027205;28;20033;-60
2022/10/09 05:38:06;;;;;;;2.67;1.77;;;;;;;;;;5033062;28;20040;-60
2022/10/09 05:40:32;;;;;;;5.85;1.67;;;;;;;;;;5033073;28;20041;-60
2022/10/09 05:42:58;;;;;;;4.72;1.55;;;;;;;;;;5034465;28;20017;-60
2022/10/09 05:45:24;;;;;;;3.60;1.65;;;;;;;;;;5033373;28;20033;-60
2022/10/09 05:47:50;;;;;;;2.25;1.75;;;;;;;;;;5032520;28;20072;-60
2022/10/09 05:50:16;;;;;;;6.45;2.40;;;;;;;;;;5030757;28;20025;-60
2022/10/09 05:52:42;;;;;;;4.53;1.80;;;;;;;;;;5033004;28;20025;-60
2022/10/09 05:55:09;;;;;;;16.77;5.45;;;;;;;;;;5034164;28;20029;-60
2022/10/09 05:57:35;;;;;;;5.25;2.00;;;;;;;;;;5033644;28;20033;-60
2022/10/09 06:00:01;;;;;;;4.60;1.80;;;;;;;;;;5031209;28;20072;-60
2022/10/09 06:02:27;;;;;;;6.72;2.35;;;;;;;;;;5030162;28;20099;-60
2022/10/09 06:04:53;;;;;;;9.30;2.13;;;;;;;;;;5033026;28;20030;-60
2022/10/09 06:07:19;;;;;;;10.65;2.08;;;;;;;;;;5033411;28;20025;-60
2022/10/09 06:09:45;;;;;;;6.82;2.10;;;;;;;;;;5035377;28;20103;-60
2022/10/09 06:12:12;;;;;;;4.93;2.13;;;;;;;;;;5033853;28;20402;-60
2022/10/09 06:14:38;;;;;;;6.25;1.95;;;;;;;;;;5031915;28;20496;-60
2022/10/09 06:17:04;;;;;;;6.35;2.17;;;;;;;;;;5032754;28;20033;-60
2022/10/09 06:19:30;;;;;;;7.10;2.30;;;;;;;;;;5033587;28;20026;-60
2022/10/09 06:21:56;;;;;;;2.35;1.83;;;;;;;;;;5032413;28;20026;-60
2022/10/09 06:24:24;;;;;;;6.22;2.28;;;;;;;;;;5032009;28;20063;-60
2022/10/09 06:26:50;;;;;;;7.15;2.40;;;;;;;;;;5026229;28;20482;-60
2022/10/09 06:29:16;;;;;;;7.00;3.00;;;;;;;;;;5032711;28;20048;-60
2022/10/09 06:31:42;;;;;;;5.60;2.88;;;;;;;;;;5033019;28;20030;-60
2022/10/09 06:34:09;;;;;;;4.60;2.45;;;;;;;;;;5026327;28;20441;-60
2022/10/09 06:36:35;;;;;;;7.95;2.80;;;;;;;;;;5030231;28;20116;-63
2022/10/09 06:39:03;;;;;;;7.88;3.25;;;;;;;;;;5033020;28;20152;-63
2022/10/09 06:41:29;;;;;;;3.63;2.35;;;;;;;;;;5032533;28;20032;-63
2022/10/09 06:43:57;;;;;;;4.63;2.55;;;;;;;;;;5030936;28;20021;-63
2022/10/09 06:46:24;;;;;;;2.40;2.10;;;;;;;;;;5032614;28;20025;-62
2022/10/09 06:48:50;;;;;;;5.72;2.75;;;;;;;;;;5030522;28;20524;-65
2022/10/09 06:51:18;;;;;;;4.78;2.65;;;;;;;;;;5032865;28;20497;-65
2022/10/09 06:53:48;;;;;;;7.57;3.33;;;;;;;;;;5033086;28;20500;-65
2022/10/09 06:56:15;;;;;;;6.50;2.67;;;;;;;;;;5030792;28;20033;-63
2022/10/09 06:58:41;;;;;;;4.68;2.30;;;;;;;;;;5030970;28;20042;-63
2022/10/09 07:01:09;;;;;;;9.50;2.78;;;;;;;;;;5023709;28;20080;-63
2022/10/09 07:03:36;;;;;;;5.60;2.42;;;;;;;;;;5021854;28;20056;-63
2022/10/09 07:06:13;;;;;;;4.93;2.40;;;;;;;;;;5032774;28;20026;-63
2022/10/09 07:08:40;;;;;;;7.63;2.63;;;;;;;;;;5032266;28;20021;-65
2022/10/09 07:11:13;;;;;;;5.88;2.15;;;;;;;;;;5029742;28;20045;-65
2022/10/09 07:13:40;;;;;;;8.18;2.15;;;;;;;;;;5021747;28;20034;-65
2022/10/09 07:16:06;;;;;;;7.25;2.58;;;;;;;;;;5030885;28;20033;-65
2022/10/09 07:18:33;;;;;;;3.13;2.25;;;;;;;;;;5032638;28;20029;-63
2022/10/09 07:21:03;;;;;;;13.50;3.35;;;;;;;;;;5029406;28;20022;-63
2022/10/09 07:23:30;;;;;;;6.72;3.10;;;;;;;;;;5030484;28;20442;-63
2022/10/09 07:25:56;;;;;;;9.82;2.42;;;;;;;;;;5031662;28;20021;-62
2022/10/09 07:28:22;;;;;;;6.65;2.53;;;;;;;;;;5032615;28;20079;-62
2022/10/09 07:30:48;;;;;;;9.77;2.45;;;;;;;;;;5027759;28;20094;-62
2022/10/09 07:33:14;;;;;;;11.25;2.97;;;;;;;;;;5022874;28;20025;-65
2022/10/09 07:35:40;;;;;;;7.00;2.42;;;;;;;;;;5028127;28;20021;-65
2022/10/09 07:38:07;;;;;;;5.68;2.97;;;;;;;;;;5023190;28;20040;-65
2022/10/09 07:40:33;;;;;;;10.43;2.60;;;;;;;;;;5025635;28;20076;-65
2022/10/09 07:42:59;;;;;;;9.95;2.88;;;;;;;;;;5026656;28;20025;-65
2022/10/09 07:45:26;;;;;;;15.60;6.50;;;;;;;;;;5027770;28;20025;-65
2022/10/09 07:47:52;;;;;;;48.58;23.42;;;;;;;;;;5025341;28;20073;-65
2022/10/09 07:50:18;;;;;;;38.40;16.55;;;;;;;;;;5026882;28;20040;-65
2022/10/09 07:52:44;;;;;;;15.48;5.85;;;;;;;;;;5025885;28;20562;-65
2022/10/09 07:55:10;;;;;;;13.20;4.03;;;;;;;;;;5025829;28;20106;-65
2022/10/09 07:57:36;;;;;;;9.20;3.92;;;;;;;;;;5021565;28;20390;-65
2022/10/09 08:00:02;;;;;;;14.05;3.60;;;;;;;;;;5027268;28;20045;-63
2022/10/09 08:02:38;;;;;;;9.63;3.53;;;;;;;;;;5026041;28;20041;-63
2022/10/09 08:05:04;;;;;;;7.63;3.08;;;;;;;;;;5028429;28;20048;-63
2022/10/09 08:07:30;;;;;;;11.90;4.07;;;;;;;;;;5018772;28;20509;-63
2022/10/09 08:09:56;;;;;;;10.88;4.72;;;;;;;;;;5030187;28;20048;-62
2022/10/09 08:12:22;;;;;;;8.45;4.10;;;;;;;;;;5033345;28;20116;-62
2022/10/09 08:14:49;;;;;;;9.50;3.67;;;;;;;;;;5034708;28;20482;-63
2022/10/09 08:17:15;;;;;;;8.07;3.47;;;;;;;;;;5024605;28;20041;-62
2022/10/09 08:19:41;;;;;;;9.80;3.47;;;;;;;;;;5028150;28;20021;-62
2022/10/09 08:22:07;;;;;;;10.73;3.95;;;;;;;;;;5029023;28;20784;-62
2022/10/09 08:24:33;;;;;;;19.02;5.68;;;;;;;;;;5030112;28;20033;-62
2022/10/09 08:27:00;;;;;;;18.10;5.85;;;;;;;;;;5033053;28;20481;-62
2022/10/09 08:29:26;;;;;;;17.73;4.72;;;;;;;;;;5029727;28;20018;-63
2022/10/09 08:31:53;;;;;;;7.28;3.63;;;;;;;;;;5033102;28;20084;-63
2022/10/09 08:34:19;;;;;;;21.10;6.78;;;;;;;;;;5039247;28;20037;-63
2022/10/09 08:36:45;;;;;;;16.27;5.55;;;;;;;;;;5036436;28;20043;-63
2022/10/09 08:39:11;;;;;;;11.98;4.30;;;;;;;;;;5035690;28;20053;-63
2022/10/09 08:41:43;;;;;;;16.90;3.78;;;;;;;;;;5032927;28;20477;-63
2022/10/09 08:44:09;;;;;;;6.50;3.20;;;;;;;;;;5031727;28;20025;-63
2022/10/09 08:46:50;;;;;;;9.55;2.53;;;;;;;;;;5038792;28;20397;-63
2022/10/09 08:49:26;;;;;;;11.25;2.80;;;;;;;;;;5030785;28;20033;-63
2022/10/09 08:51:53;;;;;;;11.45;2.72;;;;;;;;;;5034375;28;20057;-63
2022/10/09 08:54:25;;;;;;;6.88;2.35;;;;;;;;;;5034949;28;20052;-63
2022/10/09 08:56:52;;;;;;;6.53;2.22;;;;;;;;;;5037518;28;20017;-67
2022/10/09 08:59:19;;;;;;;12.35;2.40;;;;;;;;;;5032880;28;20068;-63
2022/10/09 09:01:49;;;;;;;9.07;3.28;;;;;;;;;;5025982;28;20033;-65
2022/10/09 09:04:25;;;;;;;15.90;2.53;;;;;;;;;;5027903;28;20390;-65
2022/10/09 09:07:00;;;;;;;6.65;1.85;;;;;;;;;;5033140;28;20083;-66
2022/10/09 09:09:48;;;;;;;16.25;3.38;;;;;;;;;;5035647;28;20132;-66
2022/10/09 09:12:29;;;;;;;13.85;2.40;;;;;;;;;;5030539;28;20482;-67
2022/10/09 09:15:00;;;;;;;6.93;1.90;;;;;;;;;;5031557;28;20038;-67
2022/10/09 09:17:29;;;;;;;9.50;2.13;;;;;;;;;;5037312;28;20060;-66
2022/10/09 09:19:58;;;;;;;10.73;2.92;;;;;;;;;;5030494;28;20144;-66
2022/10/09 09:22:25;;;;;;;11.13;2.22;;;;;;;;;;5027805;28;20034;-66
2022/10/09 09:24:51;;;;;;;10.35;2.05;;;;;;;;;;5033551;28;20021;-66
2022/10/09 09:27:19;;;;;;;8.75;1.63;;;;;;;;;;5033880;28;20040;-66
2022/10/09 09:29:51;;;;;;;14.43;2.30;;;;;;;;;;5033759;28;20022;-65
2022/10/09 09:32:21;;;;;;;12.07;2.53;;;;;;;;;;5037336;28;20460;-65
2022/10/09 09:34:47;;;;;;;10.70;1.95;;;;;;;;;;5034469;28;20044;-66
2022/10/09 09:37:14;;;;;;;10.60;2.03;;;;;;;;;;5031816;28;20548;-65
2022/10/09 09:39:40;;;;;;;14.57;2.25;;;;;;;;;;5033151;28;20060;-66
2022/10/09 09:42:06;;;;;;;7.45;2.10;;;;;;;;;;5032416;28;20018;-66
2022/10/09 09:44:32;;;;;;;9.70;2.03;;;;;;;;;;5034543;28;20508;-66
2022/10/09 09:46:58;;;;;;;11.23;3.55;;;;;;;;;;5036005;28;20037;-66
2022/10/09 09:49:28;;;;;;;4.82;1.77;;;;;;;;;;5037271;28;20286;-65
2022/10/09 09:51:56;;;;;;;10.95;2.50;;;;;;;;;;5032594;28;20060;-65
2022/10/09 09:54:27;;;;;;;6.50;1.60;;;;;;;;;;5033451;28;20024;-65
2022/10/09 09:56:56;;;;;;;6.25;1.80;;;;;;;;;;5028702;28;20055;-65
2022/10/09 09:59:39;;;;;;;11.23;2.33;;;;;;;;;;5036920;28;20060;-66
2022/10/09 10:02:05;;;;;;;8.90;1.83;;;;;;;;;;5027510;28;20057;-66
2022/10/09 10:04:32;;;;;;;10.30;1.85;;;;;;;;;;5032779;28;20037;-65
2022/10/09 10:06:58;;;;;;;15.60;3.33;;;;;;;;;;5036301;28;20033;-66
2022/10/09 10:09:24;;;;;;;9.02;2.80;;;;;;;;;;5030229;28;20136;-65
2022/10/09 10:11:58;;;;;;;8.20;2.08;;;;;;;;;;5029282;28;20128;-65
2022/10/09 10:14:25;;;;;;;8.80;1.90;;;;;;;;;;5035008;28;20040;-65
2022/10/09 10:16:52;;;;;;;8.85;1.85;;;;;;;;;;5028780;28;20030;-66
2022/10/09 10:19:26;;;;;;;7.40;1.88;;;;;;;;;;5030380;28;20128;-66
2022/10/09 10:22:00;;;;;;;8.93;2.42;;;;;;;;;;5032563;28;20021;-65
2022/10/09 10:24:40;;;;;;;9.13;1.80;;;;;;;;;;5029355;28;20025;-65
2022/10/09 10:27:13;;;;;;;6.82;1.73;;;;;;;;;;5034838;28;20044;-65
2022/10/09 10:29:42;;;;;;;10.38;1.63;;;;;;;;;;5033906;28;20060;-65
2022/10/09 10:32:13;;;;;;;6.57;1.65;;;;;;;;;;5037386;28;20026;-65
2022/10/09 10:34:51;;;;;;;7.88;1.67;;;;;;;;;;5033367;28;20064;-65
2022/10/09 10:37:25;;;;;;;3.45;1.50;;;;;;;;;;5039193;28;20512;-65
2022/10/09 10:40:00;;;;;;;4.15;1.35;;;;;;;;;;5030547;28;20099;-65
2022/10/09 10:42:33;;;;;;;6.38;1.25;;;;;;;;;;5034854;28;20075;-65
2022/10/09 10:45:16;;;;;;;5.20;1.52;;;;;;;;;;5034439;28;20035;-66
2022/10/09 10:47:49;;;;;;;8.18;1.60;;;;;;;;;;5035233;28;20460;-65
2022/10/09 10:50:16;;;;;;;10.85;1.48;;;;;;;;;;5033013;28;20037;-65
2022/10/09 10:52:45;;;;;;;13.10;1.60;;;;;;;;;;5031724;28;20405;-65
2022/10/09 10:55:14;;;;;;;7.97;1.42;;;;;;;;;;5030298;28;20032;-65
2022/10/09 10:57:47;;;;;;;6.97;1.40;;;;;;;;;;5031036;28;20033;-65
2022/10/09 11:00:15;;;;;;;2.65;1.05;;;;;;;;;;5030247;28;20045;-65
2022/10/09 11:02:48;;;;;;;4.63;1.30;;;;;;;;;;5031358;28;20135;-66
2022/10/09 11:05:25;;;;;;;5.78;1.40;;;;;;;;;;5025644;28;20030;-66
2022/10/09 11:08:10;;;;;;;11.05;1.63;;;;;;;;;;5026467;28;20755;-65
2022/10/09 11:10:36;;;;;;;6.13;1.60;;;;;;;;;;5028572;28;20037;-66
2022/10/09 11:13:14;;;;;;;4.90;1.33;;;;;;;;;;5029112;28;20033;-65
2022/10/09 11:15:53;;;;;;;7.32;1.50;;;;;;;;;;5029058;28;20033;-66
2022/10/09 11:18:19;;;;;;;7.00;1.30;;;;;;;;;;5025595;28;21171;-66
2022/10/09 11:20:57;;;;;;;5.35;1.58;;;;;;;;;;5029651;28;20071;-65
2022/10/09 11:23:23;;;;;;;4.85;1.20;;;;;;;;;;5025091;28;20025;-65
2022/10/09 11:26:05;;;;;;;4.47;1.20;;;;;;;;;;5029296;28;20112;-66
2022/10/09 11:28:41;;;;;;;5.90;1.25;;;;;;;;;;5035829;28;20430;-65
2022/10/09 11:31:10;;;;;;;6.53;2.10;;;;;;;;;;5031359;28;20065;-65
2022/10/09 11:33:58;;;;;;;3.65;1.30;;;;;;;;;;5023581;28;20402;-65
2022/10/09 11:36:24;;;;;;;5.45;1.38;;;;;;;;;;5028788;28;20056;-65
2022/10/09 11:38:58;;;;;;;6.88;1.30;;;;;;;;;;5035609;28;20489;-65
2022/10/09 11:41:26;;;;;;;4.93;1.15;;;;;;;;;;5033169;28;20055;-65
2022/10/09 11:43:58;;;;;;;5.75;1.50;;;;;;;;;;5032286;28;20056;-65
2022/10/09 11:46:29;;;;;;;8.40;1.67;;;;;;;;;;5032033;28;20033;-65
2022/10/09 11:49:01;;;;;;;4.15;1.05;;;;;;;;;;5030383;28;20029;-65
2022/10/09 11:51:46;;;;;;;6.88;1.40;;;;;;;;;;5029881;28;20401;-65
2022/10/09 11:54:16;;;;;;;5.15;1.55;;;;;;;;;;5029599;28;20029;-65
2022/10/09 11:56:59;;;;;;;3.00;1.20;;;;;;;;;;5030468;28;20474;-65
2022/10/09 11:59:30;;;;;;;5.72;1.30;;;;;;;;;;5030623;28;20033;-65
2022/10/09 12:02:19;;;;;;;6.97;1.42;;;;;;;;;;5030185;28;20021;-65
2022/10/09 12:04:46;;;;;;;3.53;1.40;;;;;;;;;;5024638;28;20481;-65
2022/10/09 12:07:13;;;;;;;5.55;1.17;;;;;;;;;;5022509;28;20045;-65
2022/10/09 12:09:41;;;;;;;5.55;1.10;;;;;;;;;;5023862;28;20131;-66
2022/10/09 12:12:17;;;;;;;7.50;1.10;;;;;;;;;;5027943;28;20025;-65
2022/10/09 12:14:44;;;;;;;3.42;1.40;;;;;;;;;;5027658;28;20040;-65
2022/10/09 12:17:22;;;;;;;7.47;1.20;;;;;;;;;;5022167;28;20037;-65
2022/10/09 12:19:53;;;;;;;7.65;1.50;;;;;;;;;;5021965;28;20033;-65
2022/10/09 12:22:30;;;;;;;6.13;1.40;;;;;;;;;;5021818;28;20461;-65
2022/10/09 12:24:58;;;;;;;4.80;1.27;;;;;;;;;;5026441;28;20612;-65
2022/10/09 12:27:26;;;;;;;5.70;1.30;;;;;;;;;;5021808;28;20026;-65
2022/10/09 12:29:57;;;;;;;4.97;1.13;;;;;;;;;;5023510;28;20497;-65
2022/10/09 12:32:30;;;;;;;5.47;1.27;;;;;;;;;;5026206;28;20037;-65
2022/10/09 12:34:57;;;;;;;3.70;1.15;;;;;;;;;;5029425;28;20040;-65
2022/10/09 12:37:31;;;;;;;2.17;1.13;;;;;;;;;;5031928;28;20126;-65
2022/10/09 12:40:06;;;;;;;2.25;1.00;;;;;;;;;;5033012;28;20061;-65
2022/10/09 12:42:32;;;;;;;3.17;1.08;;;;;;;;;;5029661;28;20026;-65
2022/10/09 12:44:58;;;;;;;4.80;1.10;;;;;;;;;;5029571;28;20030;-65
2022/10/09 12:47:28;;;;;;;9.30;1.50;;;;;;;;;;5023232;28;20068;-65
2022/10/09 12:50:13;;;;;;;6.18;1.25;;;;;;;;;;5026338;28;21062;-65
2022/10/09 12:52:47;;;;;;;4.90;1.05;;;;;;;;;;5023194;28;20056;-65
2022/10/09 12:55:32;;;;;;;5.78;1.25;;;;;;;;;;5028443;28;20033;-65
2022/10/09 12:58:04;;;;;;;6.20;1.10;;;;;;;;;;5024977;28;20509;-66
2022/10/09 13:00:34;;;;;;;4.43;1.00;;;;;;;;;;5019677;28;20038;-65
2022/10/09 13:03:00;;;;;;;4.35;1.30;;;;;;;;;;5019392;28;20470;-65
2022/10/09 13:05:39;;;;;;;4.90;1.13;;;;;;;;;;5019580;28;20418;-65
2022/10/09 13:08:06;;;;;;;5.10;1.30;;;;;;;;;;5020474;28;20017;-65
2022/10/09 13:10:32;;;;;;;3.55;0.93;;;;;;;;;;5018495;28;20414;-65
2022/10/09 13:12:58;;;;;;;4.38;1.10;;;;;;;;;;5016566;28;20029;-65
2022/10/09 13:15:30;;;;;;;3.78;1.38;;;;;;;;;;5016817;28;20034;-65
2022/10/09 13:17:56;;;;;;;6.03;1.52;;;;;;;;;;5020350;28;20078;-65
2022/10/09 13:20:31;;;;;;;5.20;1.42;;;;;;;;;;5017970;28;20045;-65
2022/10/09 13:22:58;;;;;;;6.80;1.20;;;;;;;;;;5020796;28;20022;-65
2022/10/09 13:25:26;;;;;;;5.30;1.20;;;;;;;;;;5018479;28;20050;-65
2022/10/09 13:27:52;;;;;;;3.47;1.15;;;;;;;;;;5020013;28;20362;-65
2022/10/09 13:30:19;;;;;;;7.85;1.35;;;;;;;;;;5024220;28;20037;-65
2022/10/09 13:32:45;;;;;;;6.78;1.45;;;;;;;;;;5020730;28;20087;-65
2022/10/09 13:35:11;;;;;;;3.83;1.08;;;;;;;;;;5025939;28;20563;-65
2022/10/09 13:37:37;;;;;;;6.30;1.25;;;;;;;;;;5020601;28;20032;-66
2022/10/09 13:40:04;;;;;;;2.63;1.20;;;;;;;;;;5019182;28;20048;-65
2022/10/09 13:42:35;;;;;;;4.68;1.42;;;;;;;;;;5027143;28;20029;-66
2022/10/09 13:45:02;;;;;;;3.70;1.00;;;;;;;;;;5026553;28;20025;-65
2022/10/09 13:47:28;;;;;;;5.20;1.08;;;;;;;;;;5028680;28;20025;-65
2022/10/09 13:49:54;;;;;;;3.20;1.17;;;;;;;;;;5021404;28;20034;-65
2022/10/09 13:52:20;;;;;;;4.18;1.25;;;;;;;;;;5020182;28;20052;-65
2022/10/09 13:54:46;;;;;;;3.17;1.80;;;;;;;;;;5027392;28;20040;-65
2022/10/09 13:57:12;;;;;;;4.07;1.20;;;;;;;;;;5022886;28;20037;-66
2022/10/09 13:59:39;;;;;;;4.45;1.45;;;;;;;;;;5021989;28;20036;-65
2022/10/09 14:02:05;;;;;;;3.67;1.40;;;;;;;;;;5024645;28;20117;-65
2022/10/09 14:04:31;;;;;;;6.60;1.55;;;;;;;;;;5018640;28;20022;-65
2022/10/09 14:06:57;;;;;;;6.43;1.23;;;;;;;;;;5024250;28;20044;-65
2022/10/09 14:09:23;;;;;;;7.22;1.50;;;;;;;;;;5034609;28;20041;-65
2022/10/09 14:11:49;;;;;;;3.13;1.20;;;;;;;;;;5033729;28;20037;-65
2022/10/09 14:14:15;;;;;;;4.30;1.10;;;;;;;;;;5029848;28;20041;-65
2022/10/09 14:16:42;;;;;;;3.30;1.35;;;;;;;;;;5032065;28;20108;-65
2022/10/09 14:19:09;;;;;;;3.25;1.10;;;;;;;;;;5035074;28;20040;-66
2022/10/09 14:21:35;;;;;;;3.17;1.13;;;;;;;;;;5033825;28;20386;-66
2022/10/09 14:24:02;;;;;;;1.67;1.00;;;;;;;;;;5035981;28;20033;-65
2022/10/09 14:26:28;;;;;;;3.25;1.20;;;;;;;;;;5034307;28;20387;-65
2022/10/09 14:28:57;;;;;;;5.75;1.20;;;;;;;;;;5033083;28;20504;-65
2022/10/09 14:31:23;;;;;;;4.40;1.40;;;;;;;;;;5029488;28;20590;-65
2022/10/09 14:33:49;;;;;;;2.60;1.75;;;;;;;;;;5032731;28;20034;-65
2022/10/09 14:36:20;;;;;;;6.18;1.40;;;;;;;;;;5028938;28;20032;-66
2022/10/09 14:38:46;;;;;;;5.75;1.30;;;;;;;;;;5032029;28;20029;-65
2022/10/09 14:41:13;;;;;;;2.63;1.30;;;;;;;;;;5032924;28;20041;-66
2022/10/09 14:43:39;;;;;;;3.60;1.10;;;;;;;;;;5021182;28;20025;-66
2022/10/09 14:46:07;;;;;;;2.38;1.38;;;;;;;;;;5020310;28;20093;-65
2022/10/09 14:48:34;;;;;;;2.05;1.20;;;;;;;;;;5025987;28;20120;-65